createdAt,value
2023-07-09T00:02:04.649Z,97533.00
2023-07-09T00:04:31.602Z,97543.00
2023-07-09T00:07:03.778Z,97540.00
2023-07-09T00:09:31.086Z,97540.00
2023-07-09T00:11:59.135Z,97536.00
2023-07-09T00:14:26.738Z,97541.00
2023-07-09T00:16:54.002Z,97537.00
2023-07-09T00:19:24.969Z,97552.00
2023-07-09T00:21:56.070Z,97547.00
2023-07-09T00:24:23.638Z,97548.00
2023-07-09T00:26:51.077Z,97552.00
2023-07-09T00:29:19.198Z,97553.00
2023-07-09T00:31:46.207Z,97553.00
2023-07-09T00:34:18.489Z,97545.00
2023-07-09T00:36:45.519Z,97556.00
2023-07-09T00:39:23.307Z,97549.00
2023-07-09T00:41:51.932Z,97556.00
2023-07-09T00:44:21.598Z,97555.00
2023-07-09T00:46:48.438Z,97559.00
2023-07-09T00:49:30.395Z,97562.00
2023-07-09T00:52:02.551Z,97562.00
2023-07-09T00:54:34.049Z,97561.00
2023-07-09T00:57:18.972Z,97561.00
2023-07-09T00:59:59.581Z,97555.00
2023-07-09T01:02:27.490Z,97559.00
2023-07-09T01:05:01.863Z,97552.00
2023-07-09T01:07:32.453Z,97561.00
2023-07-09T01:09:59.552Z,97565.00
2023-07-09T01:12:27.177Z,97553.00
2023-07-09T01:15:00.036Z,97556.00
2023-07-09T01:17:29.070Z,97563.00
2023-07-09T01:19:57.865Z,97566.00
2023-07-09T01:22:25.807Z,97569.00
2023-07-09T01:25:03.417Z,97561.00
2023-07-09T01:27:37.798Z,97561.00
2023-07-09T01:30:15.901Z,97574.00
2023-07-09T01:32:47.001Z,97574.00
2023-07-09T01:35:18.216Z,97574.00
2023-07-09T01:37:45.637Z,97567.00
2023-07-09T01:40:28.903Z,97562.00
2023-07-09T01:43:01.495Z,97567.00
2023-07-09T01:45:29.646Z,97569.00
2023-07-09T01:47:58.066Z,97575.00
2023-07-09T01:50:26.152Z,97571.00
2023-07-09T01:52:54.809Z,97561.00
2023-07-09T01:55:22.331Z,97580.00
2023-07-09T01:57:52.097Z,97575.00
2023-07-09T02:00:19.616Z,97577.00
2023-07-09T02:02:48.164Z,97578.00
2023-07-09T02:05:20.434Z,97580.00
2023-07-09T02:07:48.735Z,97580.00
2023-07-09T02:10:17.801Z,97581.00
2023-07-09T02:12:45.340Z,97573.00
2023-07-09T02:15:12.898Z,97573.00
2023-07-09T02:17:39.985Z,97576.00
2023-07-09T02:20:09.290Z,97576.00
2023-07-09T02:22:38.019Z,97574.00
2023-07-09T02:25:06.911Z,97572.00
2023-07-09T02:27:34.680Z,97573.00
2023-07-09T02:30:01.603Z,97574.00
2023-07-09T02:32:28.723Z,97581.00
2023-07-09T02:34:56.478Z,97578.00
2023-07-09T02:37:26.315Z,97583.00
2023-07-09T02:39:53.764Z,97586.00
2023-07-09T02:42:22.627Z,97589.00
2023-07-09T02:44:49.638Z,97596.00
2023-07-09T02:47:16.753Z,97583.00
2023-07-09T02:49:44.142Z,97590.00
2023-07-09T02:52:11.534Z,97587.00
2023-07-09T02:54:38.533Z,97595.00
2023-07-09T02:57:06.154Z,97593.00
2023-07-09T02:59:33.818Z,97596.00
2023-07-09T03:02:02.174Z,97600.00
2023-07-09T03:04:29.259Z,97594.00
2023-07-09T03:06:56.204Z,97595.00
2023-07-09T03:09:22.985Z,97595.00
2023-07-09T03:11:50.117Z,97599.00
2023-07-09T03:14:17.731Z,97597.00
2023-07-09T03:16:45.068Z,97598.00
2023-07-09T03:19:12.187Z,97607.00
2023-07-09T03:21:39.450Z,97604.00
2023-07-09T03:24:07.301Z,97601.00
2023-07-09T03:26:34.342Z,97601.00
2023-07-09T03:29:01.400Z,97602.00
2023-07-09T03:31:28.552Z,97603.00
2023-07-09T03:33:55.445Z,97611.00
2023-07-09T03:36:22.377Z,97608.00
2023-07-09T03:38:49.930Z,97604.00
2023-07-09T03:41:16.994Z,97600.00
2023-07-09T03:43:44.028Z,97608.00
2023-07-09T03:46:11.220Z,97603.00
2023-07-09T03:48:38.344Z,97610.00
2023-07-09T03:51:05.361Z,97613.00
2023-07-09T03:53:32.237Z,97611.00
2023-07-09T03:56:01.256Z,97612.00
2023-07-09T03:58:28.827Z,97612.00
2023-07-09T04:00:58.753Z,97616.00
2023-07-09T04:03:25.655Z,97611.00
2023-07-09T04:05:52.961Z,97612.00
2023-07-09T04:08:19.843Z,97614.00
2023-07-09T04:10:46.793Z,97610.00
2023-07-09T04:13:13.876Z,97608.00
2023-07-09T04:15:40.747Z,97608.00
2023-07-09T04:18:07.773Z,97616.00
2023-07-09T04:20:36.106Z,97611.00
2023-07-09T04:23:03.627Z,97618.00
2023-07-09T04:25:30.676Z,97612.00
2023-07-09T04:27:57.686Z,97614.00
2023-07-09T04:30:25.221Z,97618.00
2023-07-09T04:32:52.182Z,97613.00
2023-07-09T04:35:19.137Z,97623.00
2023-07-09T04:37:46.016Z,97634.00
2023-07-09T04:40:13.918Z,97628.00
2023-07-09T04:42:41.507Z,97631.00
2023-07-09T04:45:13.831Z,97629.00
2023-07-09T04:47:41.126Z,97620.00
2023-07-09T04:50:09.829Z,97621.00
2023-07-09T04:52:36.756Z,97625.00
2023-07-09T04:55:04.221Z,97632.00
2023-07-09T04:57:31.154Z,97632.00
2023-07-09T04:59:58.025Z,97632.00
2023-07-09T05:02:25.175Z,97633.00
2023-07-09T05:04:52.396Z,97636.00
2023-07-09T05:07:19.704Z,97627.00
2023-07-09T05:09:46.558Z,97637.00
2023-07-09T05:12:13.376Z,97634.00
2023-07-09T05:14:40.928Z,97640.00
2023-07-09T05:17:08.917Z,97633.00
2023-07-09T05:19:36.738Z,97635.00
2023-07-09T05:22:03.748Z,97650.00
2023-07-09T05:24:30.561Z,97643.00
2023-07-09T05:26:57.428Z,97643.00
2023-07-09T05:29:26.103Z,97638.00
2023-07-09T05:31:53.024Z,97639.00
2023-07-09T05:34:20.053Z,97636.00
2023-07-09T05:36:47.098Z,97643.00
2023-07-09T05:39:13.990Z,97641.00
2023-07-09T05:41:40.880Z,97646.00
2023-07-09T05:44:07.710Z,97639.00
2023-07-09T05:46:38.457Z,97645.00
2023-07-09T05:49:07.340Z,97641.00
2023-07-09T05:51:34.825Z,97637.00
2023-07-09T05:54:01.721Z,97642.00
2023-07-09T05:56:30.170Z,97642.00
2023-07-09T05:58:57.596Z,97637.00
2023-07-09T06:01:25.608Z,97640.00
2023-07-09T06:03:53.002Z,97638.00
2023-07-09T06:06:19.860Z,97641.00
2023-07-09T06:08:47.856Z,97639.00
2023-07-09T06:11:15.108Z,97633.00
2023-07-09T06:13:42.028Z,97642.00
2023-07-09T06:16:09.212Z,97640.00
2023-07-09T06:18:36.189Z,97632.00
2023-07-09T06:21:04.287Z,97639.00
2023-07-09T06:23:32.039Z,97648.00
2023-07-09T06:25:59.570Z,97650.00
2023-07-09T06:28:30.444Z,97641.00
2023-07-09T06:30:58.231Z,97647.00
2023-07-09T06:33:27.105Z,97651.00
2023-07-09T06:36:03.006Z,97645.00
2023-07-09T06:38:30.364Z,97647.00
2023-07-09T06:40:58.548Z,97648.00
2023-07-09T06:43:25.519Z,97651.00
2023-07-09T06:45:56.315Z,97650.00
2023-07-09T06:48:24.729Z,97652.00
2023-07-09T06:50:53.419Z,97645.00
2023-07-09T06:53:21.924Z,97655.00
2023-07-09T06:55:50.195Z,97650.00
2023-07-09T06:58:18.632Z,97644.00
2023-07-09T07:00:46.491Z,97655.00
2023-07-09T07:03:13.573Z,97653.00
2023-07-09T07:05:45.964Z,97646.00
2023-07-09T07:08:16.498Z,97648.00
2023-07-09T07:10:43.804Z,97652.00
2023-07-09T07:13:11.874Z,97650.00
2023-07-09T07:15:39.636Z,97657.00
2023-07-09T07:18:08.229Z,97656.00
2023-07-09T07:20:35.825Z,97647.00
2023-07-09T07:23:02.731Z,97651.00
2023-07-09T07:25:31.495Z,97648.00
2023-07-09T07:27:58.471Z,97650.00
2023-07-09T07:30:26.408Z,97649.00
2023-07-09T07:32:53.756Z,97653.00
2023-07-09T07:35:20.959Z,97658.00
2023-07-09T07:37:48.166Z,97653.00
2023-07-09T07:40:15.184Z,97646.00
2023-07-09T07:42:42.199Z,97653.00
2023-07-09T07:45:10.245Z,97654.00
2023-07-09T07:47:38.243Z,97652.00
2023-07-09T07:50:07.155Z,97645.00
2023-07-09T07:52:37.244Z,97650.00
2023-07-09T07:55:07.263Z,97637.00
2023-07-09T07:57:34.997Z,97646.00
2023-07-09T08:00:03.813Z,97650.00
2023-07-09T08:02:33.656Z,97653.00
2023-07-09T08:05:00.890Z,97650.00
2023-07-09T08:07:27.837Z,97645.00
2023-07-09T08:09:54.703Z,97640.00
2023-07-09T08:12:21.649Z,97648.00
2023-07-09T08:14:48.592Z,97647.00
2023-07-09T08:17:15.785Z,97650.00
2023-07-09T08:19:49.090Z,97650.00
2023-07-09T08:22:17.034Z,97649.00
2023-07-09T08:24:44.393Z,97646.00
2023-07-09T08:27:11.471Z,97646.00
2023-07-09T08:29:38.480Z,97656.00
2023-07-09T08:32:06.353Z,97651.00
2023-07-09T08:34:33.275Z,97645.00
2023-07-09T08:37:00.782Z,97646.00
2023-07-09T08:39:27.874Z,97649.00
2023-07-09T08:42:09.118Z,97642.00
2023-07-09T08:44:45.906Z,97638.00
2023-07-09T08:47:43.892Z,97643.00
2023-07-09T08:50:20.178Z,97639.00
2023-07-09T08:52:51.440Z,97646.00
2023-07-09T08:55:23.512Z,97648.00
2023-07-09T08:57:56.937Z,97641.00
2023-07-09T09:00:31.002Z,97643.00
2023-07-09T09:03:14.468Z,97642.00
2023-07-09T09:05:47.783Z,97639.00
2023-07-09T09:08:56.668Z,97637.00
2023-07-09T09:11:49.839Z,97640.00
2023-07-09T09:14:30.489Z,97639.00
2023-07-09T09:16:58.156Z,97639.00
2023-07-09T09:19:38.242Z,97645.00
2023-07-09T09:22:12.804Z,97637.00
2023-07-09T09:25:05.163Z,97641.00
2023-07-09T09:27:32.510Z,97644.00
2023-07-09T09:29:59.446Z,97641.00
2023-07-09T09:32:44.710Z,97644.00
2023-07-09T09:35:20.305Z,97646.00
2023-07-09T09:37:59.446Z,97643.00
2023-07-09T09:40:30.411Z,97640.00
2023-07-09T09:43:00.285Z,97643.00
2023-07-09T09:45:36.422Z,97645.00
2023-07-09T09:48:15.120Z,97646.00
2023-07-09T09:50:42.789Z,97642.00
2023-07-09T09:53:11.779Z,97639.00
2023-07-09T09:55:41.746Z,97633.00
2023-07-09T09:58:16.130Z,97637.00
2023-07-09T10:00:54.040Z,97639.00
2023-07-09T10:03:21.104Z,97636.00
2023-07-09T10:06:00.828Z,97638.00
2023-07-09T10:08:57.549Z,97637.00
2023-07-09T10:11:52.104Z,97639.00
2023-07-09T10:14:57.127Z,97646.00
2023-07-09T10:17:40.637Z,97644.00
2023-07-09T10:20:36.921Z,97642.00
2023-07-09T10:23:17.690Z,97649.00
2023-07-09T10:26:20.422Z,97640.00
2023-07-09T10:29:15.409Z,97641.00
2023-07-09T10:32:02.141Z,97649.00
2023-07-09T10:34:57.577Z,97645.00
2023-07-09T10:38:03.097Z,97643.00
2023-07-09T10:40:56.737Z,97643.00
2023-07-09T10:43:43.041Z,97641.00
2023-07-09T10:46:22.437Z,97642.00
2023-07-09T10:48:53.130Z,97637.00
2023-07-09T10:51:43.235Z,97639.00
2023-07-09T10:54:33.542Z,97629.00
2023-07-09T10:57:18.563Z,97632.00
2023-07-09T10:59:49.698Z,97626.00
2023-07-09T11:02:25.060Z,97623.00
2023-07-09T11:04:58.820Z,97617.00
2023-07-09T11:07:49.473Z,97619.00
2023-07-09T11:10:27.364Z,97616.00
2023-07-09T11:16:31.437Z,97618.00
2023-07-09T11:19:03.460Z,97628.00
2023-07-09T11:21:30.851Z,97619.00
2023-07-09T11:24:01.106Z,97616.00
2023-07-09T11:26:32.325Z,97621.00
2023-07-09T11:29:08.075Z,97618.00
2023-07-09T11:31:41.710Z,97612.00
2023-07-09T11:34:08.665Z,97608.00
2023-07-09T11:36:50.120Z,97606.00
2023-07-09T11:39:28.858Z,97612.00
2023-07-09T11:41:56.102Z,97607.00
2023-07-09T11:44:29.370Z,97617.00
2023-07-09T11:47:22.220Z,97602.00
2023-07-09T11:50:06.985Z,97599.00
2023-07-09T11:52:34.328Z,97596.00
2023-07-09T11:55:42.815Z,97591.00
2023-07-09T11:58:14.733Z,97589.00
2023-07-09T12:00:46.228Z,97589.00
2023-07-09T12:03:24.839Z,97587.00
2023-07-09T12:06:05.037Z,97590.00
2023-07-09T12:08:41.913Z,97590.00
2023-07-09T12:11:24.032Z,97582.00
2023-07-09T12:13:52.171Z,97581.00
2023-07-09T12:16:27.893Z,97582.00
2023-07-09T12:18:55.621Z,97573.00
2023-07-09T12:21:25.559Z,97566.00
2023-07-09T12:23:59.866Z,97570.00
2023-07-09T12:26:26.808Z,97570.00
2023-07-09T12:28:59.249Z,97578.00
2023-07-09T12:31:31.490Z,97571.00
2023-07-09T12:33:59.603Z,97572.00
2023-07-09T12:36:28.541Z,97568.00
2023-07-09T12:39:03.725Z,97573.00
2023-07-09T12:41:40.307Z,97553.00
2023-07-09T12:44:16.318Z,97558.00
2023-07-09T12:46:45.776Z,97554.00
2023-07-09T12:49:27.155Z,97552.00
2023-07-09T12:51:59.958Z,97550.00
2023-07-09T12:54:29.626Z,97548.00
2023-07-09T12:57:00.389Z,97547.00
2023-07-09T12:59:38.347Z,97543.00
2023-07-09T13:02:29.307Z,97549.00
2023-07-09T13:05:19.177Z,97542.00
2023-07-09T13:07:52.332Z,97534.00
2023-07-09T13:10:23.324Z,97523.00
2023-07-09T13:12:53.063Z,97531.00
2023-07-09T13:15:26.283Z,97530.00
2023-07-09T13:18:00.225Z,97533.00
2023-07-09T13:20:28.221Z,97521.00
2023-07-09T13:22:55.840Z,97523.00
2023-07-09T13:25:36.558Z,97531.00
2023-07-09T13:28:31.309Z,97522.00
2023-07-09T13:31:03.338Z,97521.00
2023-07-09T13:33:30.487Z,97521.00
2023-07-09T13:35:57.501Z,97519.00
2023-07-09T13:38:25.806Z,97517.00
2023-07-09T13:40:58.211Z,97517.00
2023-07-09T13:43:32.045Z,97525.00
2023-07-09T13:46:00.967Z,97526.00
2023-07-09T13:48:30.064Z,97522.00
2023-07-09T13:50:58.190Z,97526.00
2023-07-09T13:53:30.391Z,97520.00
2023-07-09T13:55:57.195Z,97519.00
2023-07-09T13:58:27.669Z,97501.00
2023-07-09T14:01:14.373Z,97509.00
2023-07-09T14:03:43.123Z,97510.00
2023-07-09T14:06:14.170Z,97510.00
2023-07-09T14:08:41.225Z,97502.00
2023-07-09T14:11:17.410Z,97502.00
2023-07-09T14:13:45.064Z,97501.00
2023-07-09T14:16:14.043Z,97510.00
2023-07-09T14:18:41.143Z,97501.00
2023-07-09T14:21:27.198Z,97503.00
2023-07-09T14:23:54.768Z,97505.00
2023-07-09T14:26:21.661Z,97500.00
2023-07-09T14:28:48.700Z,97510.00
2023-07-09T14:31:28.197Z,97491.00
2023-07-09T14:33:57.739Z,97498.00
2023-07-09T14:36:24.682Z,97495.00
2023-07-09T14:38:51.524Z,97494.00
2023-07-09T14:41:27.576Z,97489.00
2023-07-09T14:43:58.982Z,97491.00
2023-07-09T14:46:25.849Z,97486.00
2023-07-09T14:48:52.702Z,97488.00
2023-07-09T14:51:21.137Z,97481.00
2023-07-09T14:53:48.612Z,97481.00
2023-07-09T14:56:16.401Z,97483.00
2023-07-09T14:58:43.467Z,97479.00
2023-07-09T15:01:15.664Z,97480.00
2023-07-09T15:03:42.681Z,97474.00
2023-07-09T15:06:10.335Z,97470.00
2023-07-09T15:08:38.222Z,97471.00
2023-07-09T15:11:05.563Z,97469.00
2023-07-09T15:13:36.650Z,97466.00
2023-07-09T15:16:05.874Z,97467.00
2023-07-09T15:18:35.861Z,97464.00
2023-07-09T15:21:04.718Z,97455.00
2023-07-09T15:23:37.682Z,97451.00
2023-07-09T15:26:14.416Z,97446.00
2023-07-09T15:28:41.356Z,97442.00
2023-07-09T15:31:12.069Z,97451.00
2023-07-09T15:33:39.700Z,97444.00
2023-07-09T15:36:12.869Z,97441.00
2023-07-09T15:38:42.795Z,97440.00
2023-07-09T15:41:13.928Z,97433.00
2023-07-09T15:43:44.779Z,97426.00
2023-07-09T15:46:21.566Z,97422.00
2023-07-09T15:48:51.340Z,97429.00
2023-07-09T15:51:18.444Z,97425.00
2023-07-09T15:53:45.369Z,97433.00
2023-07-09T15:56:31.409Z,97430.00
2023-07-09T15:59:00.208Z,97417.00
2023-07-09T16:01:27.220Z,97414.00
2023-07-09T16:04:01.650Z,97403.00
2023-07-09T16:06:28.871Z,97409.00
2023-07-09T16:08:55.793Z,97405.00
2023-07-09T16:11:24.524Z,97411.00
2023-07-09T16:13:53.464Z,97403.00
2023-07-09T16:16:24.239Z,97407.00
2023-07-09T16:18:51.764Z,97398.00
2023-07-09T16:21:31.386Z,97404.00
2023-07-09T16:24:01.456Z,97402.00
2023-07-09T16:26:29.732Z,97392.00
2023-07-09T16:28:56.608Z,97395.00
2023-07-09T16:31:23.501Z,97394.00
2023-07-09T16:33:50.393Z,97392.00
2023-07-09T16:36:19.285Z,97397.00
2023-07-09T16:38:47.724Z,97396.00
2023-07-09T16:41:14.656Z,97397.00
2023-07-09T16:43:42.425Z,97401.00
2023-07-09T16:46:25.455Z,97397.00
2023-07-09T16:48:55.072Z,97393.00
2023-07-09T16:51:21.937Z,97397.00
2023-07-09T16:53:49.899Z,97388.00
2023-07-09T16:56:16.845Z,97395.00
2023-07-09T16:58:43.850Z,97394.00
2023-07-09T17:01:12.780Z,97393.00
2023-07-09T17:03:39.852Z,97390.00
2023-07-09T17:06:06.783Z,97388.00
2023-07-09T17:08:33.669Z,97391.00
2023-07-09T17:11:04.073Z,97382.00
2023-07-09T17:13:31.766Z,97389.00
2023-07-09T17:15:58.725Z,97388.00
2023-07-09T17:18:31.876Z,97389.00
2023-07-09T17:21:02.763Z,97390.00
2023-07-09T17:23:31.132Z,97392.00
2023-07-09T17:26:00.554Z,97393.00
2023-07-09T17:28:30.376Z,97395.00
2023-07-09T17:30:58.916Z,97390.00
2023-07-09T17:33:26.377Z,97398.00
2023-07-09T17:35:54.816Z,97393.00
2023-07-09T17:38:34.458Z,97394.00
2023-07-09T17:41:01.322Z,97403.00
2023-07-09T17:43:28.197Z,97403.00
2023-07-09T17:45:56.330Z,97397.00
2023-07-09T17:48:30.586Z,97411.00
2023-07-09T17:50:58.167Z,97406.00
2023-07-09T17:53:31.616Z,97408.00
2023-07-09T17:55:59.525Z,97404.00
2023-07-09T17:58:37.861Z,97407.00
2023-07-09T18:01:06.891Z,97403.00
2023-07-09T18:03:35.183Z,97414.00
2023-07-09T18:06:03.607Z,97412.00
2023-07-09T18:08:32.438Z,97411.00
2023-07-09T18:10:59.919Z,97410.00
2023-07-09T18:13:29.535Z,97404.00
2023-07-09T18:15:56.634Z,97414.00
2023-07-09T18:18:24.254Z,97406.00
2023-07-09T18:20:51.141Z,97418.00
2023-07-09T18:23:18.040Z,97410.00
2023-07-09T18:25:46.454Z,97411.00
2023-07-09T18:28:27.486Z,97415.00
2023-07-09T18:31:06.717Z,97415.00
2023-07-09T18:33:38.290Z,97422.00
2023-07-09T18:36:05.507Z,97418.00
2023-07-09T18:38:32.436Z,97419.00
2023-07-09T18:40:59.558Z,97409.00
2023-07-09T18:45:56.237Z,97416.00
2023-07-09T18:48:28.657Z,97418.00
2023-07-09T18:50:58.688Z,97423.00
2023-07-09T18:53:28.449Z,97418.00
2023-07-09T18:55:55.622Z,97425.00
2023-07-09T18:58:29.103Z,97421.00
2023-07-09T19:00:59.520Z,97424.00
2023-07-09T19:03:36.953Z,97425.00
2023-07-09T19:06:04.837Z,97424.00
2023-07-09T19:08:34.642Z,97424.00
2023-07-09T19:11:03.624Z,97419.00
2023-07-09T19:13:30.872Z,97427.00
2023-07-09T19:16:01.630Z,97421.00
2023-07-09T19:18:34.486Z,97422.00
2023-07-09T19:21:01.610Z,97418.00
2023-07-09T19:23:28.781Z,97419.00
2023-07-09T19:25:56.132Z,97422.00
2023-07-09T19:28:23.751Z,97418.00
2023-07-09T19:30:53.607Z,97422.00
2023-07-09T19:33:36.249Z,97433.00
2023-07-09T19:36:04.661Z,97428.00
2023-07-09T19:38:32.713Z,97433.00
2023-07-09T19:40:59.640Z,97429.00
2023-07-09T19:43:26.532Z,97436.00
2023-07-09T19:45:53.461Z,97433.00
2023-07-09T19:48:24.709Z,97432.00
2023-07-09T19:50:52.091Z,97434.00
2023-07-09T19:53:28.318Z,97429.00
2023-07-09T19:55:56.835Z,97434.00
2023-07-09T19:58:24.615Z,97435.00
2023-07-09T20:00:53.116Z,97441.00
2023-07-09T20:03:30.504Z,97437.00
2023-07-09T20:05:58.407Z,97432.00
2023-07-09T20:08:26.456Z,97429.00
2023-07-09T20:10:59.132Z,97429.00
2023-07-09T20:13:31.306Z,97432.00
2023-07-09T20:15:58.801Z,97430.00
2023-07-09T20:18:26.886Z,97422.00
2023-07-09T20:21:03.968Z,97438.00
2023-07-09T20:23:31.949Z,97436.00
2023-07-09T20:25:59.374Z,97431.00
2023-07-09T20:28:29.325Z,97435.00
2023-07-09T20:30:57.484Z,97434.00
2023-07-09T20:33:25.853Z,97424.00
2023-07-09T20:35:52.937Z,97431.00
2023-07-09T20:38:23.982Z,97432.00
2023-07-09T20:40:51.513Z,97431.00
2023-07-09T20:43:32.031Z,97434.00
2023-07-09T20:45:58.898Z,97437.00
2023-07-09T20:48:25.974Z,97426.00
2023-07-09T20:50:57.601Z,97437.00
2023-07-09T20:53:25.547Z,97430.00
2023-07-09T20:55:56.397Z,97426.00
2023-07-09T20:58:26.348Z,97433.00
2023-07-09T21:00:55.873Z,97429.00
2023-07-09T21:03:26.534Z,97436.00
2023-07-09T21:05:54.428Z,97432.00
2023-07-09T21:08:28.532Z,97438.00
2023-07-09T21:10:55.606Z,97443.00
2023-07-09T21:13:25.650Z,97444.00
2023-07-09T21:15:56.562Z,97437.00
2023-07-09T21:18:32.982Z,97441.00
2023-07-09T21:21:00.199Z,97438.00
2023-07-09T21:23:27.005Z,97442.00
2023-07-09T21:25:54.358Z,97439.00
2023-07-09T21:28:21.742Z,97442.00
2023-07-09T21:30:48.890Z,97444.00
2023-07-09T21:33:20.436Z,97446.00
2023-07-09T21:35:48.127Z,97442.00
2023-07-09T21:38:24.058Z,97446.00
2023-07-09T21:40:53.173Z,97443.00
2023-07-09T21:43:20.887Z,97450.00
2023-07-09T21:45:51.367Z,97448.00
2023-07-09T21:48:24.484Z,97449.00
2023-07-09T21:50:51.805Z,97454.00
2023-07-09T21:53:45.931Z,97458.00
2023-07-09T21:56:15.056Z,97455.00
2023-07-09T21:58:43.234Z,97456.00
2023-07-09T22:01:19.523Z,97456.00
2023-07-09T22:03:47.279Z,97450.00
2023-07-09T22:06:14.431Z,97458.00
2023-07-09T22:08:46.417Z,97461.00
2023-07-09T22:11:35.357Z,97462.00
2023-07-09T22:14:02.372Z,97463.00
2023-07-09T22:16:29.229Z,97466.00
2023-07-09T22:18:56.179Z,97463.00
2023-07-09T22:21:23.049Z,97458.00
2023-07-09T22:23:53.717Z,97468.00
2023-07-09T22:26:20.615Z,97473.00
2023-07-09T22:28:47.551Z,97467.00
2023-07-09T22:31:14.963Z,97466.00
2023-07-09T22:33:43.159Z,97460.00
2023-07-09T22:36:12.800Z,97459.00
2023-07-09T22:38:39.676Z,97457.00
2023-07-09T22:41:07.503Z,97459.00
2023-07-09T22:43:34.748Z,97465.00
2023-07-09T22:46:02.391Z,97467.00
2023-07-09T22:48:30.752Z,97462.00
2023-07-09T22:50:58.160Z,97464.00
2023-07-09T22:53:26.282Z,97462.00
2023-07-09T22:55:54.117Z,97461.00
2023-07-09T22:58:22.475Z,97463.00
2023-07-09T23:01:01.709Z,97461.00
2023-07-09T23:03:37.768Z,97462.00
2023-07-09T23:06:28.560Z,97460.00
2023-07-09T23:08:56.663Z,97466.00
2023-07-09T23:11:29.323Z,97463.00
2023-07-09T23:13:57.907Z,97460.00
2023-07-09T23:16:31.156Z,97466.00
2023-07-09T23:19:12.834Z,97467.00
2023-07-09T23:21:39.670Z,97459.00
2023-07-09T23:24:06.638Z,97455.00
2023-07-09T23:26:33.816Z,97459.00
2023-07-09T23:29:01.066Z,97456.00
2023-07-09T23:31:31.439Z,97463.00
2023-07-09T23:34:00.191Z,97463.00
2023-07-09T23:36:27.989Z,97457.00
2023-07-09T23:38:54.847Z,97463.00
2023-07-09T23:41:26.739Z,97454.00
2023-07-09T23:43:57.669Z,97462.00
2023-07-09T23:46:31.285Z,97454.00
2023-07-09T23:49:08.706Z,97448.00
2023-07-09T23:51:36.822Z,97450.00
2023-07-09T23:54:03.690Z,97463.00
2023-07-09T23:56:34.835Z,97459.00
2023-07-09T23:59:03.620Z,97446.00
